Contact Info

Augusta Flying Club, Inc

KDNL 192053Z AUTO 15005KT 10SM FEW028 23/16 A3030 RMK AO2 SLP258 T02330156 58015


TAF AMD KDNL 192038Z 1921/2018 VRB04KT P6SM SCT025 FM200600 VRB03KT 1/2SM FG VV003 FM201500 VRB04KT 2SM BR BKN008 FM201700 18006KT P6SM BKN015

info@augustaflyingclub.com

Send us a message